APL Coral — WDF6832 — position and weather

sailwx.info

Track history (hours):
 
Tides and Currents Weather Stations Pressure Air Temp Water Temp Dewpoint Dewpoint Depression Visibility Wind Speed Wind Dir Waves Ship Positions

APL Coral

Owner: APL Maritime Ltd., Bethesda, MD. More information available from US FCC via Universal Licensing System and Coast Guard Vessel Documentation Center.

Last reported at 2014-Oct-22 00:00 UTC. Time now 2014-Oct-22 09:36 UTC.
Position N 35°30' E 018°00'.

Length 275 m; draft 12 m.

Type: Ship (hazmat cat A). MMSI: 367478280.

Wind from 330 at 2 knots

Barometer 1009.8 mb
Air temperature 22.5 ° C
Visibility: greater than 10.8 NM
Dewpoint 16.6 ° C

Date/timePositionNaut miles runAvg speedWind from/ knotsBaromVisibWave heightAir tempDewpointWater temp
2014-Oct-22 00:00N 35°30' E 018°00'15220.2 330 / 21009.810.8 22.516.6
2014-Oct-21 16:28N 36°19' E 015°02'1920.7
2014-Oct-21 15:33N 36°24' E 014°39'2121.0
2014-Oct-21 14:33N 36°35' E 014°17'2120.8
2014-Oct-21 13:33N 36°45' E 013°54'2120.4
2014-Oct-21 12:33N 36°55' E 013°32'1222.0
2014-Oct-21 12:00N 37°00' E 013°18'818.6 270 / 21014.310.8 25.219.0
2014-Oct-21 11:33N 37°05' E 013°10'11620.8
2014-Oct-21 06:00N 38°06' E 011°06'7019.3 330 / 71005.210.8 22.018.925.0
2014-Oct-21 02:22N 38°45' E 009°52'1620.0
2014-Oct-21 01:33N 38°54' E 009°34'2019.8
2014-Oct-21 00:33N 39°04' E 009°13'9 9.0
2014-Oct-20 23:33N 39°11' E 009°06'2 2.0
2014-Oct-20 22:32N 39°13' E 009°04'0 0.0
2014-Oct-20 21:32N 39°13' E 009°04'0 0.0
2014-Oct-20 20:33N 39°13' E 009°04'0 0.0
2014-Oct-20 19:33N 39°13' E 009°04'0 0.0
2014-Oct-20 18:33N 39°13' E 009°04'0 0.0
2014-Oct-20 17:33N 39°13' E 009°04'0 0.0
2014-Oct-20 16:34N 39°13' E 009°04'0 0.0
2014-Oct-20 15:33N 39°13' E 009°04'0 0.0
2014-Oct-20 14:33N 39°13' E 009°04'0 0.0
2014-Oct-20 13:33N 39°13' E 009°04'0 0.0
2014-Oct-20 12:33N 39°13' E 009°04'0 0.0
2014-Oct-20 11:32N 39°13' E 009°04'0 0.0
2014-Oct-20 10:33N 39°13' E 009°04'0 0.4
2014-Oct-20 09:33N 39°13' E 009°04'6 6.0
2014-Oct-20 08:33N 39°07' E 009°06'6 6.5
2014-Oct-20 07:33N 39°01' E 009°08'9 8.8
2014-Oct-20 06:33N 38°53' E 009°04'610.7
2014-Oct-20 06:00N 38°48' E 009°00'817.9 340 / 41020.510.8 23.019.925.0
2014-Oct-20 05:33N 38°43' E 008°52'1615.7
2014-Oct-20 04:33N 38°40' E 008°32'1615.7
2014-Oct-20 03:33N 38°39' E 008°12'1715.6
2014-Oct-20 02:26N 38°37' E 007°50'4016.4
2014-Oct-20 00:00N 38°30' E 007°00'4314.8 270 / 141021.510.8 22.520.0
2014-Oct-19 21:04N 38°26' E 006°05'2416.2
2014-Oct-19 19:33N 38°23' E 005°34'2016.2
2014-Oct-19 18:21N 38°20' E 005°09'1315.0
2014-Oct-19 17:31N 38°18' E 004°53'1515.6
2014-Oct-19 16:34N 38°16' E 004°35'1615.5
2014-Oct-19 15:33N 38°14' E 004°15'1515.3
2014-Oct-19 14:33N 38°12' E 003°56'1615.7
2014-Oct-19 13:32N 38°11' E 003°35'1515.0
2014-Oct-19 12:33N 38°06' E 003°18'1717.6
2014-Oct-19 11:33N 37°59' E 002°57'4715.1
2014-Oct-19 08:25N 37°40' E 002°02'3015.9
2014-Oct-19 06:33N 37°28' E 001°28'1615.8
2014-Oct-19 05:33N 37°21' E 001°10'1615.9
2014-Oct-19 04:33N 37°15' E 000°51'1515.7
2014-Oct-19 03:34N 37°09' E 000°34'1615.8
2014-Oct-19 02:33N 37°02' E 000°16'1615.7
2014-Oct-19 01:33N 36°56' W 000°03'1615.7
2014-Oct-19 00:33N 36°50' W 000°21'1119.4
2014-Oct-19 00:00N 36°42' W 000°30'716.1 1015.910.8 23.620.6
2014-Oct-18 23:33N 36°44' W 000°39'1715.4
2014-Oct-18 22:28N 36°37' W 000°58'1415.6
2014-Oct-18 21:33N 36°31' W 001°14'2315.9
2014-Oct-18 20:07N 36°22' W 001°40'815.1
2014-Oct-18 19:33N 36°19' W 001°50'1615.5
2014-Oct-18 18:30N 36°15' W 002°09'714.9
2014-Oct-18 18:00N 36°12' W 002°18'9716.2 270 / 161014.5 5.4 21.019.421.0
2014-Oct-18 12:00N 36°06' W 004°18'4417.1 260 / 161016.810.8 26.219.4
2014-Oct-18 09:24N 36°00' W 005°12'1417.1
2014-Oct-18 08:34N 35°57' W 005°30'3115.4
2014-Oct-18 06:33N 35°53' W 006°08'2216.0
2014-Oct-18 05:10N 35°54' W 006°35'1215.9
2014-Oct-18 04:24N 35°56' W 006°50'3816.4
2014-Oct-18 02:06N 36°04' W 007°35'1016.0
2014-Oct-18 01:30N 36°06' W 007°47'2013.5
2014-Oct-18 00:00N 36°06' W 008°12'2718.9 300 / 161013.910.8 21.518.3
2014-Oct-17 22:33N 36°16' W 008°44'2115.6
2014-Oct-17 21:11N 36°18' W 009°10'2615.9
2014-Oct-17 19:34N 36°26' W 009°40'1715.7
2014-Oct-17 18:27N 36°30' W 010°01'1715.9
2014-Oct-17 17:23N 36°29' W 010°23'9815.3
2014-Oct-17 11:00N 36°24' W 012°24'7815.5 300 / 141011.010.8 2.025.019.123.0
2014-Oct-17 06:00N 36°18' W 014°00'1457242.9 230 / 151008.0 5.4 0.521.017.823.0
2014-Oct-17 00:00N 36°06' E 016°06'191979.9 310 / 231005.2 0.5 2.521.118.223.0
2014-Oct-16 00:00N 35°48' W 023°24'2615.8 280 / 271005.0 5.4 2.021.016.023.0
2014-Oct-15 22:20N 35°48' W 023°57'1215.3
2014-Oct-15 21:33N 35°47' W 024°11'1515.3
2014-Oct-15 20:33N 35°46' W 024°30'1515.5
2014-Oct-15 19:34N 35°46' W 024°49'1615.6
2014-Oct-15 18:33N 35°45' W 025°08'1515.5
2014-Oct-15 17:34N 35°44' W 025°27'1615.7
2014-Oct-15 16:33N 35°43' W 025°47'7516.4
2014-Oct-15 12:00N 35°36' W 027°18'7116.0 260 / 271007.010.8 2.020.816.223.0
2014-Oct-15 07:33N 35°34' W 028°46'2214.0
2014-Oct-15 06:00N 35°30' W 029°12'9816.3 300 / 241006.5 5.4 1.021.016.023.0
2014-Oct-15 00:00N 35°30' W 031°12'29316.3 250 / 261007.010.8 2.520.916.524.0
2014-Oct-14 06:00N 35°54' W 037°12'10317.1 310 / 231007.0 5.4 21.019.425.0
2014-Oct-14 00:00N 36°06' W 039°18'51817.3 250 / 81008.2 5.4 2.522.018.925.0
2014-Oct-12 18:00N 36°48' W 050°00'12520.8 270 / 231012.910.8 2.026.122.9
2014-Oct-12 12:00N 36°48' W 052°36'12520.8 230 / 111014.5 5.4 2.025.523.526.0
2014-Oct-12 06:00N 36°48' W 055°12'   260 / 221015.3 5.4 24.021.0
Track history (hours):
 
Tides and Currents Weather Stations Pressure Air Temp Water Temp Dewpoint Dewpoint Depression Visibility Wind Speed Wind Dir Waves Ship Positions

APL Coral

Owner: APL Maritime Ltd., Bethesda, MD. More information available from US FCC via Universal Licensing System and Coast Guard Vessel Documentation Center.

Last reported at 2014-Oct-22 00:00 UTC. Time now 2014-Oct-22 09:36 UTC.
Position N 35°30' E 018°00'.

Length 275 m; draft 12 m.

Type: Ship (hazmat cat A). MMSI: 367478280.

Wind from 330 at 2 knots

Barometer 1009.8 mb
Air temperature 22.5 ° C
Visibility: greater than 10.8 NM
Dewpoint 16.6 ° C

Date/timePositionNaut miles runAvg speedWind from/ knotsBaromVisibWave heightAir tempDewpointWater temp
2014-Oct-22 00:00N 35°30' E 018°00'15220.2 330 / 21009.810.8 22.516.6
2014-Oct-21 16:28N 36°19' E 015°02'1920.7
2014-Oct-21 15:33N 36°24' E 014°39'2121.0
2014-Oct-21 14:33N 36°35' E 014°17'2120.8
2014-Oct-21 13:33N 36°45' E 013°54'2120.4
2014-Oct-21 12:33N 36°55' E 013°32'1222.0
2014-Oct-21 12:00N 37°00' E 013°18'818.6 270 / 21014.310.8 25.219.0
2014-Oct-21 11:33N 37°05' E 013°10'11620.8
2014-Oct-21 06:00N 38°06' E 011°06'7019.3 330 / 71005.210.8 22.018.925.0
2014-Oct-21 02:22N 38°45' E 009°52'1620.0
2014-Oct-21 01:33N 38°54' E 009°34'2019.8
2014-Oct-21 00:33N 39°04' E 009°13'9 9.0
2014-Oct-20 23:33N 39°11' E 009°06'2 2.0
2014-Oct-20 22:32N 39°13' E 009°04'0 0.0
2014-Oct-20 21:32N 39°13' E 009°04'0 0.0
2014-Oct-20 20:33N 39°13' E 009°04'0 0.0
2014-Oct-20 19:33N 39°13' E 009°04'0 0.0
2014-Oct-20 18:33N 39°13' E 009°04'0 0.0
2014-Oct-20 17:33N 39°13' E 009°04'0 0.0
2014-Oct-20 16:34N 39°13' E 009°04'0 0.0
2014-Oct-20 15:33N 39°13' E 009°04'0 0.0
2014-Oct-20 14:33N 39°13' E 009°04'0 0.0
2014-Oct-20 13:33N 39°13' E 009°04'0 0.0
2014-Oct-20 12:33N 39°13' E 009°04'0 0.0
2014-Oct-20 11:32N 39°13' E 009°04'0 0.0
2014-Oct-20 10:33N 39°13' E 009°04'0 0.4
2014-Oct-20 09:33N 39°13' E 009°04'6 6.0
2014-Oct-20 08:33N 39°07' E 009°06'6 6.5
2014-Oct-20 07:33N 39°01' E 009°08'9 8.8
2014-Oct-20 06:33N 38°53' E 009°04'610.7
2014-Oct-20 06:00N 38°48' E 009°00'817.9 340 / 41020.510.8 23.019.925.0
2014-Oct-20 05:33N 38°43' E 008°52'1615.7
2014-Oct-20 04:33N 38°40' E 008°32'1615.7
2014-Oct-20 03:33N 38°39' E 008°12'1715.6
2014-Oct-20 02:26N 38°37' E 007°50'4016.4
2014-Oct-20 00:00N 38°30' E 007°00'4314.8 270 / 141021.510.8 22.520.0
2014-Oct-19 21:04N 38°26' E 006°05'2416.2
2014-Oct-19 19:33N 38°23' E 005°34'2016.2
2014-Oct-19 18:21N 38°20' E 005°09'1315.0
2014-Oct-19 17:31N 38°18' E 004°53'1515.6
2014-Oct-19 16:34N 38°16' E 004°35'1615.5
2014-Oct-19 15:33N 38°14' E 004°15'1515.3
2014-Oct-19 14:33N 38°12' E 003°56'1615.7
2014-Oct-19 13:32N 38°11' E 003°35'1515.0
2014-Oct-19 12:33N 38°06' E 003°18'1717.6
2014-Oct-19 11:33N 37°59' E 002°57'4715.1
2014-Oct-19 08:25N 37°40' E 002°02'3015.9
2014-Oct-19 06:33N 37°28' E 001°28'1615.8
2014-Oct-19 05:33N 37°21' E 001°10'1615.9
2014-Oct-19 04:33N 37°15' E 000°51'1515.7
2014-Oct-19 03:34N 37°09' E 000°34'1615.8
2014-Oct-19 02:33N 37°02' E 000°16'1615.7
2014-Oct-19 01:33N 36°56' W 000°03'1615.7
2014-Oct-19 00:33N 36°50' W 000°21'1119.4
2014-Oct-19 00:00N 36°42' W 000°30'716.1 1015.910.8 23.620.6
2014-Oct-18 23:33N 36°44' W 000°39'1715.4
2014-Oct-18 22:28N 36°37' W 000°58'1415.6
2014-Oct-18 21:33N 36°31' W 001°14'2315.9
2014-Oct-18 20:07N 36°22' W 001°40'815.1
2014-Oct-18 19:33N 36°19' W 001°50'1615.5
2014-Oct-18 18:30N 36°15' W 002°09'714.9
2014-Oct-18 18:00N 36°12' W 002°18'9716.2 270 / 161014.5 5.4 21.019.421.0
2014-Oct-18 12:00N 36°06' W 004°18'4417.1 260 / 161016.810.8 26.219.4
2014-Oct-18 09:24N 36°00' W 005°12'1417.1
2014-Oct-18 08:34N 35°57' W 005°30'3115.4
2014-Oct-18 06:33N 35°53' W 006°08'2216.0
2014-Oct-18 05:10N 35°54' W 006°35'1215.9
2014-Oct-18 04:24N 35°56' W 006°50'3816.4
2014-Oct-18 02:06N 36°04' W 007°35'1016.0
2014-Oct-18 01:30N 36°06' W 007°47'2013.5
2014-Oct-18 00:00N 36°06' W 008°12'2718.9 300 / 161013.910.8 21.518.3
2014-Oct-17 22:33N 36°16' W 008°44'2115.6
2014-Oct-17 21:11N 36°18' W 009°10'2615.9
2014-Oct-17 19:34N 36°26' W 009°40'1715.7
2014-Oct-17 18:27N 36°30' W 010°01'1715.9
2014-Oct-17 17:23N 36°29' W 010°23'9815.3
2014-Oct-17 11:00N 36°24' W 012°24'7815.5 300 / 141011.010.8 2.025.019.123.0
2014-Oct-17 06:00N 36°18' W 014°00'1457242.9 230 / 151008.0 5.4 0.521.017.823.0
2014-Oct-17 00:00N 36°06' E 016°06'191979.9 310 / 231005.2 0.5 2.521.118.223.0
2014-Oct-16 00:00N 35°48' W 023°24'2615.8 280 / 271005.0 5.4 2.021.016.023.0
2014-Oct-15 22:20N 35°48' W 023°57'1215.3
2014-Oct-15 21:33N 35°47' W 024°11'1515.3
2014-Oct-15 20:33N 35°46' W 024°30'1515.5
2014-Oct-15 19:34N 35°46' W 024°49'1615.6
2014-Oct-15 18:33N 35°45' W 025°08'1515.5
2014-Oct-15 17:34N 35°44' W 025°27'1615.7
2014-Oct-15 16:33N 35°43' W 025°47'7516.4
2014-Oct-15 12:00N 35°36' W 027°18'7116.0 260 / 271007.010.8 2.020.816.223.0
2014-Oct-15 07:33N 35°34' W 028°46'2214.0
2014-Oct-15 06:00N 35°30' W 029°12'9816.3 300 / 241006.5 5.4 1.021.016.023.0
2014-Oct-15 00:00N 35°30' W 031°12'29316.3 250 / 261007.010.8 2.520.916.524.0
2014-Oct-14 06:00N 35°54' W 037°12'10317.1 310 / 231007.0 5.4 21.019.425.0
2014-Oct-14 00:00N 36°06' W 039°18'51817.3 250 / 81008.2 5.4 2.522.018.925.0
2014-Oct-12 18:00N 36°48' W 050°00'12520.8 270 / 231012.910.8 2.026.122.9
2014-Oct-12 12:00N 36°48' W 052°36'12520.8 230 / 111014.5 5.4 2.025.523.526.0
2014-Oct-12 06:00N 36°48' W 055°12'   260 / 221015.3 5.4 24.021.0

Dump ship's entire track history